Waverly, KS (66871)

10:04 PM CDT on October 01, 2014 (GMT -0500)
KD0RII | Change Station
CLOSE
Current Station
Personal Weather Station
Location: Melvern, KS
Elevation: 306 m
Nearby Weather Stations

Elev 306 m 38.50 °N, 95.64 °W | Updated 10 seconds ago

Overcast
Overcast
20.8 °C
Feels Like 20.8 °C
N
5.0
Wind Variable Wind from East
Gusts 6.1 km/h

Today
High -- | Low -- °C
--% Chance of Precip.
Yesterday
High -- | Low -- °C
Precip. -- mm
7:18 AM 7:05 PM
First Quarter, 54% visible
Pressure 1006 hPa
Visibility 16.1 kilometers
Clouds Overcast 2438 m
Dew Point 20 °C
Humidity 96%
Rainfall 1 mm
Snow Depth Not available.
UV 0 out of 12
Pollen .50 out of 12
Air Quality Not available.
Flu Activity Not available.
METAR KEMP 020253Z AUTO 11007KT 10SM OVC080 20/18 A2972 RMK AO2 LTG DSNT NE AND E SLP056 60001 T02000183 51016

More Conditions Fewer Conditions

Pressure 1006 hPa
Visibility 16.1 kilometers
Clouds Overcast 2438 m
Dew Point 20 °C
Humidity 96%
Rainfall 1 mm
Snow Depth Not available.
UV 0 out of 12
Pollen .50 out of 12
Air Quality Not available.
Flu Activity Not available.
METAR KEMP 020253Z AUTO 11007KT 10SM OVC080 20/18 A2972 RMK AO2 LTG DSNT NE AND E SLP056 60001 T02000183 51016

More Conditions Fewer Conditions

10-Day Weather Forecast

Almanac

Astronomy

Oct. 01, 2014 Rise Set
Actual Time 7:18 AM CDT 7:05 PM CDT
Civil Twilight 6:51 AM CDT 7:31 PM CDT
Nautical Twilight 6:21 AM CDT 8:02 PM CDT
Astronomical Twilight 5:50 AM CDT 8:33 PM CDT
Moon 2:16 PM CDT (10/1) No Moon Set
Length of Visible Light 12h 39m
Length of Day
11h 47m
Tomorrow will be 2m 28s shorter.
First Quarter, 54% of the Moon is Illuminated
Today
First Quarter
Oct 8
Full
Oct 15
Last Quarter
Oct 23
New
Oct 30
First Quarter

Today's Extremes

State Highs State Lows

Community

WunderPhotos

Upload Photos

1,758,157 photos uploaded!

WunderBlogs® & News

Nearby

Snow Depth

Station Depth Elevation
No new snow has been reported.

Earthquake Activity

City Distance Mag. Time & Date
Perry, Oklahoma 260 kilometers 2.8 4:17 PM CDT
2014-10-01
Parsons, Kansas 113 kilometers 3.0 7:33 PM CDT
2014-09-30
Minimum magnitude displayed is 2.5.

Coastal Water Temperatures

Place Temperature
No Stations Reporting

Nearby Weather Stations